Time;durP1;ratioP1;P1;durP2;ratioP2;P2;SDS_P1;SDS_P2;PMS_P1;PMS_P2;Temp;Humidity;BMP_temperature;BMP_pressure;BME280_temperature;BME280_humidity;BME280_pressure;Samples;Min_cycle;Max_cycle;Signal;HPM_P1;HPM_P2
2023/04/27 17:18:50;;;;;;;7.50;4.15;;;15.20;52.90;;;;;;5106860;27;20329;-62
2023/04/27 17:21:17;;;;;;;7.28;3.83;;;15.00;53.90;;;;;;5115248;28;20359;-62
2023/04/27 17:23:45;;;;;;;6.70;4.40;;;14.90;54.50;;;;;;5127541;27;20034;-62
2023/04/27 17:26:11;;;;;;;9.18;4.72;;;14.90;54.00;;;;;;5126698;28;20037;-62
2023/04/27 17:28:36;;;;;;;6.95;3.83;;;14.90;54.50;;;;;;5127873;28;20023;-61
2023/04/27 17:31:02;;;;;;;8.82;4.35;;;14.80;54.90;;;;;;5126269;28;20084;-63
2023/04/27 17:33:28;;;;;;;4.57;3.10;;;14.90;54.50;;;;;;5127362;28;20605;-62
2023/04/27 17:35:53;;;;;;;7.53;3.63;;;14.80;54.20;;;;;;5119041;28;20035;-62
2023/04/27 17:38:19;;;;;;;7.43;3.60;;;14.80;55.10;;;;;;5107398;28;20051;-62
2023/04/27 17:40:45;;;;;;;6.63;4.13;;;14.70;55.20;;;;;;5106653;28;20030;-62
2023/04/27 17:43:11;;;;;;;5.82;3.63;;;14.60;55.70;;;;;;5106517;28;20031;-62
2023/04/27 17:45:37;;;;;;;9.27;3.90;;;14.60;54.90;;;;;;5107178;28;20028;-61
2023/04/27 17:48:03;;;;;;;6.22;3.80;;;14.50;55.10;;;;;;5106701;28;20070;-62
2023/04/27 17:50:29;;;;;;;7.03;3.65;;;14.40;55.40;;;;;;5106791;28;20038;-62
2023/04/27 17:52:55;;;;;;;9.60;4.50;;;14.20;55.60;;;;;;5107068;28;20115;-60
2023/04/27 17:55:21;;;;;;;7.68;4.90;;;14.10;56.00;;;;;;5106303;28;20103;-62
2023/04/27 17:57:47;;;;;;;8.30;4.70;;;14.10;55.70;;;;;;5106622;28;20178;-61
2023/04/27 18:00:14;;;;;;;69.97;36.75;;;13.90;56.40;;;;;;5106921;28;20480;-62
2023/04/27 18:02:40;;;;;;;15.15;8.25;;;13.80;56.70;;;;;;5104957;28;20024;-62
2023/04/27 18:05:06;;;;;;;7.35;4.40;;;13.70;57.20;;;;;;5107267;28;20101;-62
2023/04/27 18:07:35;;;;;;;9.48;3.80;;;13.60;57.50;;;;;;5106958;28;20081;-59
2023/04/27 18:10:03;;;;;;;8.45;3.85;;;13.50;57.60;;;;;;5105842;28;20596;-61
2023/04/27 18:12:29;;;;;;;9.27;4.97;;;13.40;58.20;;;;;;5105961;28;20392;-61
2023/04/27 18:14:55;;;;;;;8.50;5.18;;;13.30;58.60;;;;;;5106693;28;20104;-62
2023/04/27 18:17:21;;;;;;;6.97;4.32;;;13.30;58.80;;;;;;5105793;28;20554;-61
2023/04/27 18:19:48;;;;;;;8.90;4.82;;;13.20;59.30;;;;;;5107316;28;20040;-62
2023/04/27 18:22:13;;;;;;;7.82;3.83;;;13.10;59.60;;;;;;5106312;28;20016;-62
2023/04/27 18:24:40;;;;;;;7.95;4.68;;;13.00;59.50;;;;;;5105702;28;20426;-63
2023/04/27 18:27:05;;;;;;;6.22;4.57;;;12.90;59.40;;;;;;5106818;28;20524;-62
2023/04/27 18:29:31;;;;;;;10.18;8.48;;;12.90;60.00;;;;;;5094352;28;20024;-63
2023/04/27 18:32:00;;;;;;;9.55;5.72;;;12.80;60.20;;;;;;5092508;28;20032;-63
2023/04/27 18:34:26;;;;;;;8.85;5.05;;;12.70;60.60;;;;;;5092683;28;20418;-62
2023/04/27 18:36:51;;;;;;;9.85;5.82;;;12.60;60.80;;;;;;5092283;28;20028;-62
2023/04/27 18:39:17;;;;;;;8.75;4.78;;;12.60;61.00;;;;;;5091291;28;20038;-60
2023/04/27 18:41:43;;;;;;;9.55;6.10;;;12.50;61.30;;;;;;5112923;28;20028;-61
2023/04/27 18:44:08;;;;;;;9.02;6.28;;;12.50;61.40;;;;;;5110302;28;20019;-62
2023/04/27 18:46:34;;;;;;;11.52;7.50;;;12.40;61.40;;;;;;5112065;28;20404;-62
2023/04/27 18:49:00;;;;;;;12.07;7.20;;;12.30;61.50;;;;;;5112050;28;20015;-61
2023/04/27 18:51:27;;;;;;;13.73;8.05;;;12.30;61.80;;;;;;5111900;28;20023;-61
2023/04/27 18:53:53;;;;;;;13.68;7.78;;;12.30;62.10;;;;;;5099834;28;20380;-61
2023/04/27 18:56:19;;;;;;;12.45;7.03;;;12.20;62.60;;;;;;5107560;28;20024;-61
2023/04/27 18:58:47;;;;;;;14.07;8.27;;;12.20;63.20;;;;;;5091029;28;20036;-64
2023/04/27 19:01:28;;;;;;;11.13;6.85;;;12.10;63.70;;;;;;5091079;28;20098;-61
2023/04/27 19:03:54;;;;;;;11.23;6.85;;;12.10;64.00;;;;;;5090328;28;20031;-61
2023/04/27 19:06:20;;;;;;;14.25;8.00;;;12.00;64.00;;;;;;5090681;28;20111;-63
2023/04/27 19:08:45;;;;;;;13.98;6.65;;;12.00;64.40;;;;;;5090444;28;20027;-62
2023/04/27 19:11:12;;;;;;;10.93;5.53;;;12.00;63.60;;;;;;5091848;28;20043;-63
2023/04/27 19:13:41;;;;;;;10.55;6.40;;;12.00;64.30;;;;;;5089328;28;20047;-61
2023/04/27 19:16:07;;;;;;;14.93;7.38;;;11.90;63.80;;;;;;5103407;28;20032;-63
2023/04/27 19:18:34;;;;;;;16.60;8.05;;;11.90;63.90;;;;;;5111740;28;20396;-64
2023/04/27 19:21:00;;;;;;;13.07;6.97;;;11.90;64.30;;;;;;5111049;28;20379;-61
2023/04/27 19:23:25;;;;;;;12.30;6.68;;;11.90;64.50;;;;;;5112078;28;20024;-62
2023/04/27 19:25:51;;;;;;;11.68;6.20;;;11.90;64.60;;;;;;5110539;28;20371;-62
2023/04/27 19:28:18;;;;;;;15.07;7.43;;;11.90;64.50;;;;;;5112000;28;20098;-61
2023/04/27 19:30:45;;;;;;;15.05;7.30;;;11.90;64.60;;;;;;5101743;28;20028;-62
2023/04/27 19:33:11;;;;;;;18.83;8.13;;;11.90;64.60;;;;;;5091200;28;20542;-62
2023/04/27 19:35:37;;;;;;;14.40;7.18;;;11.90;64.50;;;;;;5090166;28;20032;-62
2023/04/27 19:38:03;;;;;;;14.57;6.65;;;11.90;64.70;;;;;;5094540;28;20051;-62
2023/04/27 19:40:28;;;;;;;11.93;6.85;;;11.80;64.90;;;;;;5088563;28;20019;-61
2023/04/27 19:42:55;;;;;;;14.13;7.70;;;11.80;65.30;;;;;;5091159;28;20039;-61
2023/04/27 19:45:23;;;;;;;15.65;8.90;;;11.80;66.10;;;;;;5089641;28;20123;-62
2023/04/27 19:47:49;;;;;;;17.38;7.75;;;11.80;65.50;;;;;;5091410;28;20035;-61
2023/04/27 19:50:15;;;;;;;14.40;7.85;;;11.80;65.60;;;;;;5089792;28;20016;-62
2023/04/27 19:52:41;;;;;;;21.83;10.02;;;11.80;65.70;;;;;;5091151;28;20020;-62
2023/04/27 19:55:07;;;;;;;14.43;7.10;;;11.80;65.80;;;;;;5094236;28;20077;-62
2023/04/27 19:57:33;;;;;;;9.45;5.85;;;11.80;65.60;;;;;;5111793;28;20039;-62
2023/04/27 20:00:00;;;;;;;11.18;6.13;;;11.80;64.80;;;;;;5111042;28;20043;-64
2023/04/27 20:02:26;;;;;;;13.43;7.38;;;11.70;65.00;;;;;;5098149;28;20412;-62
2023/04/27 20:04:51;;;;;;;11.20;7.05;;;11.70;65.20;;;;;;5091196;28;20725;-65
2023/04/27 20:07:17;;;;;;;20.98;8.88;;;11.70;65.50;;;;;;5091390;28;20099;-67
2023/04/27 20:09:42;;;;;;;25.40;10.48;;;11.60;65.60;;;;;;5099882;28;20023;-64
2023/04/27 20:12:08;;;;;;;13.82;7.05;;;11.60;65.80;;;;;;5109706;28;20024;-62
2023/04/27 20:14:34;;;;;;;14.45;8.43;;;11.60;65.80;;;;;;5110794;28;20462;-62
2023/04/27 20:17:01;;;;;;;18.27;8.20;;;11.60;66.10;;;;;;5110014;28;20122;-61
2023/04/27 20:19:27;;;;;;;15.73;7.70;;;11.50;66.50;;;;;;5110930;28;20023;-61
2023/04/27 20:21:52;;;;;;;12.60;7.05;;;11.50;67.00;;;;;;5107100;28;20028;-65
2023/04/27 20:24:18;;;;;;;11.50;5.75;;;11.50;67.10;;;;;;5089014;28;20554;-61
2023/04/27 20:26:45;;;;;;;9.82;5.82;;;11.50;67.20;;;;;;5090831;28;20032;-65
2023/04/27 20:29:11;;;;;;;11.48;5.90;;;11.40;67.30;;;;;;5101806;28;20468;-61
2023/04/27 20:31:37;;;;;;;10.65;6.47;;;11.40;67.40;;;;;;5111313;28;20032;-65
2023/04/27 20:34:03;;;;;;;9.43;5.78;;;11.40;67.50;;;;;;5109084;28;20143;-63
2023/04/27 20:36:29;;;;;;;8.48;5.53;;;11.40;68.20;;;;;;5109768;28;20033;-63
2023/04/27 20:38:56;;;;;;;9.35;5.75;;;11.40;68.20;;;;;;5102582;28;20150;-62
2023/04/27 20:41:22;;;;;;;10.18;5.90;;;11.30;68.40;;;;;;5090532;28;20024;-62
2023/04/27 20:43:49;;;;;;;13.63;6.75;;;11.30;68.90;;;;;;5101314;28;20051;-64
2023/04/27 20:46:15;;;;;;;12.10;5.43;;;11.30;69.40;;;;;;5110747;28;20038;-63
2023/04/27 20:48:40;;;;;;;9.90;5.80;;;11.30;69.30;;;;;;5110075;28;20686;-63
2023/04/27 20:51:06;;;;;;;9.05;5.30;;;11.20;69.00;;;;;;5100111;28;20129;-64
2023/04/27 20:53:32;;;;;;;12.10;6.30;;;11.20;69.10;;;;;;5089630;28;20020;-62
2023/04/27 20:55:57;;;;;;;10.88;6.05;;;11.20;69.30;;;;;;5089113;28;20039;-62
2023/04/27 20:58:23;;;;;;;11.10;6.75;;;11.20;69.40;;;;;;5088193;28;20047;-62
2023/04/27 21:00:48;;;;;;;11.43;6.60;;;11.20;69.30;;;;;;5089851;28;20107;-62
2023/04/27 21:03:14;;;;;;;10.15;5.53;;;11.10;69.40;;;;;;5089196;28;20020;-63
2023/04/27 21:05:40;;;;;;;9.15;5.88;;;11.10;69.60;;;;;;5094199;28;20023;-61
2023/04/27 21:08:07;;;;;;;10.15;5.95;;;11.00;70.10;;;;;;5110643;28;20383;-62
2023/04/27 21:10:34;;;;;;;11.25;6.40;;;11.00;70.50;;;;;;5110404;28;20047;-61
2023/04/27 21:13:00;;;;;;;11.15;6.43;;;10.90;70.80;;;;;;5102476;28;20038;-61
2023/04/27 21:15:26;;;;;;;11.30;5.95;;;10.90;71.20;;;;;;5089498;28;20016;-61
2023/04/27 21:17:52;;;;;;;9.38;5.75;;;10.90;70.90;;;;;;5088082;28;20353;-61
2023/04/27 21:20:18;;;;;;;9.63;6.22;;;10.80;71.00;;;;;;5089086;28;20020;-60
2023/04/27 21:22:43;;;;;;;11.93;6.75;;;10.80;71.30;;;;;;5088753;28;20031;-61
2023/04/27 21:25:09;;;;;;;11.40;6.70;;;10.70;71.30;;;;;;5088759;28;20028;-60
2023/04/27 21:27:35;;;;;;;12.52;6.35;;;10.80;71.50;;;;;;5092212;28;20143;-61
2023/04/27 21:30:01;;;;;;;9.73;5.43;;;10.70;71.60;;;;;;5109814;28;20106;-60
2023/04/27 21:32:27;;;;;;;10.15;6.43;;;10.70;71.60;;;;;;5109648;28;20024;-61
2023/04/27 21:34:52;;;;;;;8.73;5.28;;;10.60;72.00;;;;;;5092587;28;20063;-62
2023/04/27 21:37:18;;;;;;;10.02;5.55;;;10.60;72.30;;;;;;5088395;28;21248;-60
2023/04/27 21:39:44;;;;;;;9.30;5.00;;;10.60;72.40;;;;;;5094438;28;20032;-62
2023/04/27 21:42:09;;;;;;;12.23;5.50;;;10.60;72.60;;;;;;5089580;28;20028;-62
2023/04/27 21:44:35;;;;;;;9.82;6.25;;;10.50;72.80;;;;;;5092099;28;20522;-63
